Terminal Aerodrome Forecast
Issued by NWS

Home | Current Version | Previous Version | Text Only | Print | Product List | Glossary On
Versions: 1 2 3 4 5 6 7 8 9 10 11 12 13 14 15 16 17 18 19 20 21
024
FTUS45 KTFX 200539
TAFCTB
TAF
KCTB 200539Z 2006/2106 24035G50KT P6SM SCT100 BKN120
     FM201400 27020G28KT P6SM SCT050 BKN090
     FM201700 32014KT P6SM VCSH SCT020 BKN050
      TEMPO 2020/2024 2SM -SHSN BR SCT008 OVC020
     FM210200 03011KT 4SM -SN BR OVC008=

USA.gov is the U.S. government's official web portal to all federal, state and local government web resources and services.